Time;durP1;ratioP1;P1;durP2;ratioP2;P2;SDS_P1;SDS_P2;PMS_P1;PMS_P2;Temp;Humidity;BMP_temperature;BMP_pressure;BME280_temperature;BME280_humidity;BME280_pressure;Samples;Min_cycle;Max_cycle;Signal;HPM_P1;HPM_P2
2023/07/06 00:01:26;;;;;;;3.60;2.00;;;13.80;20.60;;;;;;4935742;29;20667;-81
2023/07/06 00:03:56;;;;;;;4.65;2.15;;;13.70;25.90;;;;;;4933686;29;20475;-81
2023/07/06 00:06:23;;;;;;;5.88;1.70;;;13.40;44.50;;;;;;4933846;29;20048;-79
2023/07/06 00:08:52;;;;;;;3.70;1.80;;;13.30;77.40;;;;;;4931709;29;20054;-81
2023/07/06 00:11:20;;;;;;;5.05;1.90;;;13.40;82.30;;;;;;4933049;29;20040;-81
2023/07/06 00:13:47;;;;;;;3.78;2.15;;;13.40;75.60;;;;;;4934975;29;20047;-80
2023/07/06 00:16:13;;;;;;;3.83;2.17;;;13.30;70.90;;;;;;4937552;29;20054;-80
2023/07/06 00:18:41;;;;;;;5.95;2.03;;;13.20;93.20;;;;;;4932787;29;20428;-80
2023/07/06 00:21:08;;;;;;;4.55;2.30;;;13.20;91.90;;;;;;4933495;29;20050;-79
2023/07/06 00:23:34;;;;;;;6.03;1.90;;;13.10;98.10;;;;;;4912074;29;20039;-80
2023/07/06 00:26:05;;;;;;;4.43;2.10;;;13.10;99.90;;;;;;4933343;29;20035;-80
2023/07/06 00:28:32;;;;;;;4.97;2.28;;;13.00;96.50;;;;;;4932960;29;20039;-81
2023/07/06 00:31:06;;;;;;;4.93;2.00;;;12.90;99.90;;;;;;4933204;29;20030;-81
2023/07/06 00:33:33;;;;;;;3.10;2.00;;;12.80;99.90;;;;;;4934468;29;20043;-80
2023/07/06 00:35:59;;;;;;;3.65;2.20;;;12.80;99.90;;;;;;4933195;29;20036;-80
2023/07/06 00:38:26;;;;;;;4.75;2.30;;;12.90;99.90;;;;;;4908856;29;20081;-80
2023/07/06 00:40:56;;;;;;;4.78;2.67;;;12.80;99.90;;;;;;4933169;29;20382;-80
2023/07/06 00:43:25;;;;;;;8.05;2.45;;;12.80;99.90;;;;;;4932595;28;20035;-79
2023/07/06 00:45:57;;;;;;;4.15;1.95;;;12.70;99.90;;;;;;4933532;29;20027;-81
2023/07/06 00:48:34;;;;;;;482.67;161.68;;;12.60;99.90;;;;;;4929827;29;20039;-79
2023/07/06 00:51:20;;;;;;;6.63;6.03;;;12.70;99.90;;;;;;4916300;29;20070;-80
2023/07/06 00:53:53;;;;;;;4.55;2.30;;;12.70;99.90;;;;;;4928251;29;20054;-80
2023/07/06 00:56:23;;;;;;;4.22;3.28;;;12.70;99.90;;;;;;4934188;29;20470;-80
2023/07/06 00:58:52;;;;;;;4.82;2.53;;;12.50;99.90;;;;;;4931653;29;20047;-80
2023/07/06 01:01:20;;;;;;;5.78;2.35;;;12.50;99.90;;;;;;4937684;29;20035;-80
2023/07/06 01:03:52;;;;;;;3.78;2.40;;;12.30;99.90;;;;;;4914892;29;20047;-79
2023/07/06 01:06:26;;;;;;;3.33;2.13;;;12.20;99.90;;;;;;4934002;29;20031;-80
2023/07/06 01:08:53;;;;;;;5.82;2.30;;;12.20;99.90;;;;;;4931976;29;20039;-79
2023/07/06 01:11:20;;;;;;;6.18;2.35;;;12.20;99.90;;;;;;4916168;29;20055;-79
2023/07/06 01:13:48;;;;;;;4.43;2.55;;;12.20;99.90;;;;;;4931562;28;20043;-81
2023/07/06 01:16:28;;;;;;;4.30;2.65;;;12.40;99.90;;;;;;4932180;29;20048;-80
2023/07/06 01:19:06;;;;;;;6.07;2.25;;;12.60;99.90;;;;;;4907403;29;20063;-79
2023/07/06 01:21:48;;;;;;;5.95;2.90;;;12.70;99.90;;;;;;4932204;29;20044;-80
2023/07/06 01:24:25;;;;;;;5.50;3.47;;;12.70;99.90;;;;;;4933269;29;20028;-80
2023/07/06 01:26:56;;;;;;;4.90;2.70;;;12.70;99.90;;;;;;4933155;29;20032;-79
2023/07/06 01:29:37;;;;;;;3.22;2.08;;;12.60;99.90;;;;;;4932293;29;20383;-79
2023/07/06 01:32:14;;;;;;;4.00;2.83;;;12.50;99.90;;;;;;4924876;29;20051;-81
2023/07/06 01:34:53;;;;;;;4.70;2.35;;;12.40;99.90;;;;;;4933499;29;20471;-78
2023/07/06 01:37:36;;;;;;;6.57;2.08;;;12.30;99.90;;;;;;4908961;29;20054;-79
2023/07/06 01:40:09;;;;;;;1.17;0.50;;;12.30;99.90;;;;;;4931280;29;20078;-80
2023/07/06 01:42:38;;;;;;;46.42;43.50;;;12.30;99.90;;;;;;4932773;28;20051;-80
2023/07/06 01:45:09;;;;;;;183.00;92.97;;;12.20;99.90;;;;;;4932232;29;20064;-80
2023/07/06 01:47:43;;;;;;;5.45;2.42;;;12.10;99.90;;;;;;4932327;29;20043;-79
2023/07/06 01:50:12;;;;;;;4.40;2.30;;;12.10;99.90;;;;;;4931870;29;20051;-81
2023/07/06 01:53:09;;;;;;;4.60;2.42;;;12.10;99.90;;;;;;4934392;29;20074;-80
2023/07/06 01:55:43;;;;;;;4.07;2.47;;;12.20;99.90;;;;;;4937438;29;20158;-80
2023/07/06 01:58:18;;;;;;;4.45;2.20;;;12.30;99.90;;;;;;4905966;29;20044;-80
2023/07/06 02:00:53;;;;;;;4.68;2.75;;;12.30;99.90;;;;;;4933720;29;20054;-81
2023/07/06 02:03:20;;;;;;;6.05;2.97;;;12.20;99.90;;;;;;4934167;29;20035;-81
2023/07/06 02:05:47;;;;;;;5.22;2.88;;;12.10;99.90;;;;;;4935532;29;20486;-81
2023/07/06 02:08:14;;;;;;;5.88;2.83;;;12.00;99.90;;;;;;4911769;29;20499;-81
2023/07/06 02:10:40;;;;;;;5.00;2.67;;;12.00;99.90;;;;;;4914929;29;20032;-81
2023/07/06 02:13:06;;;;;;;4.60;2.30;;;12.00;99.90;;;;;;4929271;29;20040;-81
2023/07/06 02:15:33;;;;;;;4.60;2.90;;;12.00;99.90;;;;;;4934643;29;20044;-80
2023/07/06 02:18:01;;;;;;;3.25;2.58;;;12.00;99.90;;;;;;4934384;29;20055;-80
2023/07/06 02:20:29;;;;;;;4.30;2.10;;;11.90;99.90;;;;;;4932776;29;20056;-80
2023/07/06 02:23:03;;;;;;;4.15;2.30;;;11.90;99.90;;;;;;4917811;29;20044;-81
2023/07/06 02:25:29;;;;;;;8.88;2.50;;;12.10;99.90;;;;;;4936050;29;20035;-82
2023/07/06 02:27:56;;;;;;;3.63;2.80;;;12.10;99.90;;;;;;4931850;29;20035;-81
2023/07/06 02:30:22;;;;;;;4.95;3.25;;;12.10;99.90;;;;;;4936450;29;20027;-80
2023/07/06 02:32:49;;;;;;;4.85;2.38;;;12.00;99.90;;;;;;4936502;29;20489;-80
2023/07/06 02:35:17;;;;;;;4.38;2.08;;;12.10;99.90;;;;;;4937117;29;20046;-80
2023/07/06 02:37:43;;;;;;;6.90;2.50;;;12.10;99.90;;;;;;4920730;29;20032;-79
2023/07/06 02:40:11;;;;;;;5.43;2.63;;;12.00;99.90;;;;;;4954125;29;20054;-79
2023/07/06 02:42:40;;;;;;;3.95;2.08;;;12.00;99.90;;;;;;4953218;29;20048;-80
2023/07/06 02:45:06;;;;;;;4.15;2.38;;;12.00;99.90;;;;;;4944847;29;20024;-81
2023/07/06 02:47:33;;;;;;;3.92;2.15;;;12.00;99.90;;;;;;4937005;28;20051;-81
2023/07/06 02:49:59;;;;;;;5.57;2.38;;;11.90;99.90;;;;;;4935253;29;20040;-81
2023/07/06 02:52:25;;;;;;;3.90;2.28;;;11.80;99.90;;;;;;4935870;29;20036;-80
2023/07/06 02:54:53;;;;;;;4.57;2.03;;;11.70;99.90;;;;;;4922121;29;20403;-83
2023/07/06 02:57:20;;;;;;;3.88;2.20;;;11.80;99.90;;;;;;4934569;29;20026;-80
2023/07/06 02:59:46;;;;;;;4.25;2.08;;;11.80;99.90;;;;;;4905054;29;20055;-80
2023/07/06 03:02:12;;;;;;;4.63;2.40;;;11.70;99.90;;;;;;4934829;29;20024;-79
2023/07/06 03:04:39;;;;;;;3.70;2.35;;;11.60;99.90;;;;;;4935845;29;20031;-79
2023/07/06 03:07:08;;;;;;;4.57;2.63;;;11.70;99.90;;;;;;4933796;29;20455;-80
2023/07/06 03:09:34;;;;;;;5.35;2.42;;;11.70;99.90;;;;;;4928891;29;20043;-80
2023/07/06 03:12:05;;;;;;;7.55;2.30;;;11.60;99.90;;;;;;4932826;29;20039;-80
2023/07/06 03:14:33;;;;;;;4.90;2.50;;;11.60;99.90;;;;;;4934031;29;20035;-80
2023/07/06 03:17:00;;;;;;;4.03;2.65;;;11.50;99.90;;;;;;4934152;29;20070;-80
2023/07/06 03:19:26;;;;;;;4.70;2.63;;;11.50;99.90;;;;;;4910702;29;20418;-80
2023/07/06 03:21:58;;;;;;;5.45;3.17;;;11.50;99.90;;;;;;4935013;29;20036;-79
2023/07/06 03:24:26;;;;;;;5.03;2.55;;;11.30;99.90;;;;;;4904459;29;20396;-79
2023/07/06 03:26:52;;;;;;;7.60;2.97;;;11.20;99.90;;;;;;4933771;29;20035;-80
2023/07/06 03:29:20;;;;;;;4.32;2.50;;;11.10;99.90;;;;;;4908268;29;20044;-80
2023/07/06 03:31:46;;;;;;;4.72;2.92;;;11.10;99.90;;;;;;4909849;29;20039;-80
2023/07/06 03:34:12;;;;;;;7.18;4.55;;;11.10;99.90;;;;;;4910532;29;20047;-81
2023/07/06 03:36:41;;;;;;;4.15;2.47;;;11.10;99.90;;;;;;4934813;29;20039;-81
2023/07/06 03:39:12;;;;;;;5.15;2.33;;;11.10;99.90;;;;;;4931166;29;20040;-80
2023/07/06 03:41:39;;;;;;;5.13;3.00;;;11.20;99.90;;;;;;4934712;29;20051;-79
2023/07/06 03:44:06;;;;;;;5.60;2.55;;;11.20;99.90;;;;;;4917067;29;20058;-81
2023/07/06 03:46:34;;;;;;;4.60;2.33;;;11.20;99.90;;;;;;4908138;29;20043;-83
2023/07/06 03:49:03;;;;;;;4.82;2.78;;;11.10;99.90;;;;;;4932264;29;20043;-81
2023/07/06 03:51:30;;;;;;;6.35;3.15;;;11.20;99.90;;;;;;4916501;29;20039;-80
2023/07/06 03:53:56;;;;;;;3.38;2.67;;;11.20;99.90;;;;;;4918731;29;20036;-81
2023/07/06 03:56:27;;;;;;;3.92;2.65;;;11.20;99.90;;;;;;4932955;29;20043;-82
2023/07/06 03:58:56;;;;;;;5.65;2.92;;;11.30;99.90;;;;;;4926781;29;20051;-83
2023/07/06 04:01:24;;;;;;;7.03;3.08;;;11.30;99.90;;;;;;4926000;29;20173;-83
2023/07/06 04:03:52;;;;;;;8.07;3.05;;;11.30;99.90;;;;;;4933003;29;20039;-82
2023/07/06 04:06:18;;;;;;;6.22;3.42;;;11.20;99.90;;;;;;4930634;29;20039;-82
2023/07/06 04:08:45;;;;;;;9.18;3.42;;;11.30;99.90;;;;;;4934021;29;20263;-80
2023/07/06 04:11:11;;;;;;;8.52;3.03;;;11.30;99.90;;;;;;4930406;29;20490;-82
2023/07/06 04:13:37;;;;;;;5.78;2.67;;;11.40;99.90;;;;;;4933773;29;20113;-82
2023/07/06 04:16:05;;;;;;;5.35;3.05;;;11.30;99.90;;;;;;4932998;29;20042;-81
2023/07/06 04:18:33;;;;;;;5.05;2.40;;;11.40;99.90;;;;;;4933617;29;20392;-82
2023/07/06 04:21:00;;;;;;;6.43;2.95;;;11.40;99.90;;;;;;4933433;29;20040;-82
2023/07/06 04:23:26;;;;;;;4.47;2.60;;;11.50;99.90;;;;;;4906957;29;20042;-82
2023/07/06 04:25:53;;;;;;;4.60;3.15;;;11.80;99.90;;;;;;4909642;29;20035;-82
2023/07/06 04:28:19;;;;;;;3.63;2.30;;;12.40;99.90;;;;;;4928909;29;20048;-80
2023/07/06 04:30:49;;;;;;;5.32;2.50;;;13.00;99.90;;;;;;4915729;29;20040;-81
2023/07/06 04:33:19;;;;;;;52.92;6.63;;;14.00;72.50;;;;;;4930052;29;20232;-80
2023/07/06 04:35:51;;;;;;;6.03;2.50;;;14.80;1.00;;;;;;4931562;29;20424;-81
2023/07/06 04:38:18;;;;;;;465.75;77.95;;;15.30;1.00;;;;;;4922964;29;20054;-82
2023/07/06 04:40:45;;;;;;;3.20;2.03;;;15.80;1.00;;;;;;4935301;29;20502;-82
2023/07/06 04:43:11;;;;;;;4.40;2.42;;;15.40;1.00;;;;;;4933506;29;20795;-81
2023/07/06 04:45:38;;;;;;;4.28;2.03;;;15.20;1.00;;;;;;4916904;29;20470;-81
2023/07/06 04:48:06;;;;;;;5.88;1.95;;;15.40;1.00;;;;;;4933550;29;20469;-81
2023/07/06 04:50:32;;;;;;;3.95;1.77;;;15.90;1.00;;;;;;4933636;29;20042;-82
2023/07/06 04:53:01;;;;;;;5.82;1.83;;;15.90;1.00;;;;;;4940306;29;20028;-83
2023/07/06 04:55:29;;;;;;;5.43;2.20;;;15.40;1.00;;;;;;4917624;29;20047;-82
2023/07/06 04:57:58;;;;;;;5.13;2.05;;;15.20;1.00;;;;;;4933618;29;20047;-81
2023/07/06 05:00:28;;;;;;;4.82;1.73;;;15.50;1.00;;;;;;4932396;29;20467;-82
2023/07/06 05:03:00;;;;;;;3.13;1.63;;;16.40;1.00;;;;;;4918259;29;20039;-82
2023/07/06 05:05:28;;;;;;;5.70;2.25;;;17.10;1.00;;;;;;4938618;29;20050;-82
2023/07/06 05:07:57;;;;;;;5.65;2.80;;;17.50;99.90;;;;;;4934477;29;20179;-83
2023/07/06 05:10:25;;;;;;;3.28;1.90;;;16.90;99.90;;;;;;4932596;29;20032;-82
2023/07/06 05:12:52;;;;;;;4.35;1.90;;;16.60;1.00;;;;;;4935551;29;20031;-82
2023/07/06 05:15:19;;;;;;;6.13;2.42;;;16.50;1.00;;;;;;4932981;29;20027;-81
2023/07/06 05:17:45;;;;;;;4.57;1.80;;;16.80;1.00;;;;;;4931414;29;20055;-81
2023/07/06 05:20:15;;;;;;;3.47;1.98;;;16.60;1.00;;;;;;4922737;29;20395;-82
2023/07/06 05:22:42;;;;;;;3.85;2.40;;;16.40;1.00;;;;;;4931860;29;20391;-82
2023/07/06 05:25:10;;;;;;;3.72;2.15;;;17.00;1.00;;;;;;4933452;29;20763;-82
2023/07/06 05:27:37;;;;;;;5.43;2.13;;;17.70;99.90;;;;;;4914939;29;20044;-84
2023/07/06 05:30:04;;;;;;;4.78;2.47;;;18.00;99.90;;;;;;4931257;29;20398;-83
2023/07/06 05:32:30;;;;;;;4.10;2.35;;;18.30;99.90;;;;;;4932034;29;20028;-82
2023/07/06 05:34:57;;;;;;;4.65;2.75;;;18.50;99.90;;;;;;4933958;29;20410;-80
2023/07/06 05:37:24;;;;;;;5.45;2.58;;;18.70;99.90;;;;;;4933299;29;20043;-81
2023/07/06 05:39:51;;;;;;;5.10;2.53;;;18.70;99.90;;;;;;4932044;29;20040;-82
2023/07/06 05:42:20;;;;;;;4.25;1.83;;;19.00;99.90;;;;;;4917799;29;20039;-82
2023/07/06 05:44:46;;;;;;;4.20;2.58;;;19.20;99.90;;;;;;4916216;29;20052;-81
2023/07/06 05:47:13;;;;;;;3.78;2.05;;;19.40;99.90;;;;;;4935781;29;20038;-80
2023/07/06 05:49:39;;;;;;;5.97;2.03;;;19.80;99.90;;;;;;4937188;29;20402;-80
2023/07/06 05:52:06;;;;;;;5.57;2.15;;;20.20;99.90;;;;;;4935169;29;20198;-80
2023/07/06 05:54:35;;;;;;;6.18;2.90;;;20.50;99.90;;;;;;4936992;29;20047;-80
2023/07/06 05:57:03;;;;;;;5.57;2.95;;;19.90;99.90;;;;;;4935648;29;20032;-80
2023/07/06 05:59:32;;;;;;;4.40;2.55;;;19.40;99.90;;;;;;4926820;29;20039;-79
2023/07/06 06:01:59;;;;;;;5.45;2.80;;;19.40;99.90;;;;;;4938121;29;20036;-81
2023/07/06 06:04:26;;;;;;;5.05;2.65;;;19.60;99.90;;;;;;4944688;29;20040;-79
2023/07/06 06:06:54;;;;;;;4.93;2.80;;;20.10;99.90;;;;;;4937983;29;20051;-80
2023/07/06 06:09:21;;;;;;;4.18;2.58;;;20.60;99.90;;;;;;4918798;29;20039;-80
2023/07/06 06:11:50;;;;;;;6.15;2.85;;;21.20;99.90;;;;;;4931371;29;20031;-80
2023/07/06 06:14:17;;;;;;;5.35;2.50;;;21.40;99.90;;;;;;4936277;29;20027;-79
2023/07/06 06:16:43;;;;;;;3.67;2.28;;;21.70;99.90;;;;;;4936150;29;20027;-79
2023/07/06 06:19:09;;;;;;;4.63;2.92;;;21.80;99.90;;;;;;4936067;29;20483;-81
2023/07/06 06:21:36;;;;;;;6.28;3.38;;;22.10;99.90;;;;;;4934483;29;20137;-80
2023/07/06 06:24:08;;;;;;;6.28;4.50;;;22.00;99.90;;;;;;4935709;29;20027;-81
2023/07/06 06:26:35;;;;;;;6.85;3.58;;;22.30;99.90;;;;;;4936495;29;20035;-79
2023/07/06 06:29:02;;;;;;;5.03;3.25;;;22.10;99.90;;;;;;4936405;29;20039;-81
2023/07/06 06:31:29;;;;;;;5.57;2.88;;;21.50;99.90;;;;;;4935594;29;20055;-83
2023/07/06 06:33:55;;;;;;;6.25;2.53;;;21.80;99.90;;;;;;4938104;29;20387;-82
2023/07/06 06:36:22;;;;;;;5.30;3.28;;;21.90;99.90;;;;;;4938768;29;20047;-83
2023/07/06 06:38:49;;;;;;;7.45;2.60;;;21.60;99.90;;;;;;4937218;29;20032;-82
2023/07/06 06:41:15;;;;;;;4.78;2.60;;;21.80;99.90;;;;;;4935271;29;20036;-82
2023/07/06 06:43:44;;;;;;;4.85;3.00;;;22.10;99.90;;;;;;4936313;29;20039;-84
2023/07/06 06:46:12;;;;;;;6.50;2.13;;;21.30;99.90;;;;;;4919505;29;20047;-84
2023/07/06 06:48:41;;;;;;;5.13;1.65;;;21.10;99.90;;;;;;4937090;29;20039;-85
2023/07/06 06:51:10;;;;;;;3.72;1.42;;;21.40;99.90;;;;;;4912939;29;20032;-84
2023/07/06 06:53:40;;;;;;;4.88;1.83;;;22.00;99.90;;;;;;4937653;29;20040;-83
2023/07/06 06:56:08;;;;;;;2.58;1.45;;;21.40;99.90;;;;;;4939896;29;20063;-83
2023/07/06 06:58:35;;;;;;;5.45;1.45;;;21.80;99.90;;;;;;4939426;29;20394;-84
2023/07/06 07:01:07;;;;;;;2.63;1.83;;;21.60;99.90;;;;;;4937122;29;20048;-84
2023/07/06 07:03:34;;;;;;;5.57;1.83;;;21.60;99.90;;;;;;4936476;29;20047;-84
2023/07/06 07:06:12;;;;;;;4.60;1.55;;;21.60;99.90;;;;;;4935665;29;20043;-86
2023/07/06 07:08:43;;;;;;;3.03;1.35;;;22.30;99.90;;;;;;4915956;29;20055;-87
2023/07/06 07:11:10;;;;;;;3.60;1.48;;;23.00;99.90;;;;;;4948658;29;20124;-87
2023/07/06 07:13:38;;;;;;;3.67;1.67;;;22.50;99.90;;;;;;4947920;29;20048;-88
2023/07/06 07:16:05;;;;;;;5.05;1.77;;;22.80;99.90;;;;;;4932400;29;20032;-88
2023/07/06 07:18:33;;;;;;;2.13;1.17;;;23.20;99.90;;;;;;4938612;29;20047;-88
2023/07/06 07:21:01;;;;;;;5.05;1.75;;;24.00;99.90;;;;;;4935094;29;20063;-85
2023/07/06 07:23:35;;;;;;;2.58;0.90;;;23.80;93.00;;;;;;4937108;29;20036;-86
2023/07/06 07:26:03;;;;;;;4.03;1.45;;;22.90;99.90;;;;;;4915888;29;20043;-86
2023/07/06 07:28:31;;;;;;;1.67;0.80;;;23.50;99.90;;;;;;4936124;29;20043;-85
2023/07/06 07:30:58;;;;;;;5.63;1.30;;;22.70;99.90;;;;;;4940486;29;20054;-86
2023/07/06 07:33:27;;;;;;;4.75;1.35;;;22.20;99.90;;;;;;4936180;29;20040;-85
2023/07/06 07:35:53;;;;;;;2.45;1.05;;;22.10;99.90;;;;;;4913701;29;20032;-83
2023/07/06 07:38:20;;;;;;;3.40;1.42;;;22.00;99.90;;;;;;4918944;29;20050;-86
2023/07/06 07:41:02;;;;;;;4.13;1.40;;;21.40;99.90;;;;;;4936059;29;20051;-84
2023/07/06 07:43:31;;;;;;;1.83;0.82;;;22.70;99.90;;;;;;4908557;29;20047;-86
2023/07/06 07:46:00;;;;;;;3.95;1.20;;;23.30;99.90;;;;;;4935557;29;20036;-84
2023/07/06 07:48:27;;;;;;;5.40;1.67;;;22.80;99.90;;;;;;4935079;29;20027;-85
2023/07/06 07:50:56;;;;;;;5.65;1.80;;;22.70;99.90;;;;;;4935424;29;20279;-84
2023/07/06 07:53:26;;;;;;;2.92;1.60;;;22.00;99.90;;;;;;4935587;29;20040;-84
2023/07/06 07:55:54;;;;;;;2.75;1.42;;;22.10;99.90;;;;;;4935551;29;20378;-84
2023/07/06 07:58:22;;;;;;;5.95;2.20;;;22.60;99.90;;;;;;4910466;29;20035;-84
2023/07/06 08:00:56;;;;;;;3.67;2.20;;;23.20;99.90;;;;;;4918353;29;20046;-85
2023/07/06 08:03:27;;;;;;;5.55;2.58;;;23.80;95.50;;;;;;4934689;29;20031;-84
2023/07/06 08:05:55;;;;;;;4.18;2.22;;;23.80;97.50;;;;;;4936133;29;20097;-86
2023/07/06 08:08:25;;;;;;;5.35;1.98;;;24.50;79.80;;;;;;4909019;29;20071;-85
2023/07/06 08:10:55;;;;;;;3.60;1.75;;;24.80;68.00;;;;;;4936057;29;20062;-87
2023/07/06 08:13:22;;;;;;;4.35;2.03;;;24.90;69.90;;;;;;4912651;29;20043;-85
2023/07/06 08:15:49;;;;;;;5.03;1.60;;;25.30;59.90;;;;;;4935410;29;20398;-85
2023/07/06 08:18:15;;;;;;;6.75;2.20;;;23.90;73.40;;;;;;4913437;29;20058;-87
2023/07/06 08:20:47;;;;;;;2.50;1.63;;;24.20;76.30;;;;;;4935054;29;20058;-86
2023/07/06 08:23:16;;;;;;;3.25;1.88;;;24.10;70.10;;;;;;4935289;29;20040;-85
2023/07/06 08:25:42;;;;;;;3.97;2.30;;;23.00;85.50;;;;;;4935637;29;20043;-85
2023/07/06 08:28:12;;;;;;;4.10;1.90;;;22.40;99.60;;;;;;4935073;29;20031;-83
2023/07/06 08:30:40;;;;;;;6.82;2.20;;;22.60;99.40;;;;;;4935137;29;20043;-85
2023/07/06 08:33:10;;;;;;;5.88;2.10;;;22.40;98.50;;;;;;4933181;29;20042;-81
2023/07/06 08:35:44;;;;;;;8.93;2.38;;;22.40;99.40;;;;;;4918187;29;20121;-84
2023/07/06 08:38:11;;;;;;;4.53;2.10;;;22.80;96.20;;;;;;4930728;29;20040;-85
2023/07/06 08:40:40;;;;;;;5.93;1.90;;;22.90;79.00;;;;;;4934336;29;20414;-84
2023/07/06 08:43:14;;;;;;;4.40;1.57;;;23.70;90.20;;;;;;4934795;29;20043;-86
2023/07/06 08:45:43;;;;;;;4.00;1.70;;;24.90;45.30;;;;;;4935556;29;20036;-83
2023/07/06 08:48:16;;;;;;;4.60;1.77;;;25.00;45.20;;;;;;4931685;29;20040;-86
2023/07/06 08:50:56;;;;;;;9.95;2.00;;;25.40;41.60;;;;;;4906048;29;20051;-85
2023/07/06 08:53:30;;;;;;;6.15;1.52;;;24.70;27.80;;;;;;4933147;29;20120;-83
2023/07/06 08:55:57;;;;;;;5.35;2.10;;;24.00;59.20;;;;;;4914895;29;20121;-82
2023/07/06 08:58:30;;;;;;;10.38;2.53;;;23.30;62.20;;;;;;4934830;29;20039;-84
2023/07/06 09:01:12;;;;;;;5.72;2.75;;;23.50;58.60;;;;;;4913223;29;20060;-83
2023/07/06 09:03:46;;;;;;;4.30;1.85;;;22.90;73.00;;;;;;4934285;29;20040;-84
2023/07/06 09:06:20;;;;;;;4.97;2.25;;;23.30;92.70;;;;;;4930369;29;20036;-84
2023/07/06 09:08:50;;;;;;;5.30;2.10;;;23.30;69.20;;;;;;4912535;29;20051;-83
2023/07/06 09:11:17;;;;;;;4.40;1.85;;;23.30;62.30;;;;;;4934667;29;20426;-81
2023/07/06 09:13:49;;;;;;;4.50;2.15;;;23.50;86.50;;;;;;4935144;29;20039;-85
2023/07/06 09:16:19;;;;;;;2.67;1.40;;;23.70;81.80;;;;;;4932776;29;20039;-83
2023/07/06 09:18:52;;;;;;;3.08;1.92;;;23.90;52.70;;;;;;4921629;29;20062;-84
2023/07/06 09:21:25;;;;;;;4.72;1.70;;;23.30;48.80;;;;;;4938055;29;20044;-86
2023/07/06 09:23:51;;;;;;;4.50;1.63;;;23.30;52.60;;;;;;4935253;29;20039;-85
2023/07/06 09:26:33;;;;;;;3.35;1.15;;;23.20;56.20;;;;;;4937121;29;20048;-83
2023/07/06 09:29:20;;;;;;;5.97;1.63;;;23.70;57.00;;;;;;4938640;29;20043;-83
2023/07/06 09:31:47;;;;;;;4.57;1.75;;;23.40;47.30;;;;;;4937645;29;20047;-81
2023/07/06 09:34:27;;;;;;;2.85;1.23;;;23.00;51.80;;;;;;4931915;29;20035;-83
2023/07/06 09:36:53;;;;;;;9.15;2.58;;;22.70;65.20;;;;;;4938650;29;20042;-83
2023/07/06 09:39:19;;;;;;;3.10;2.03;;;22.70;66.80;;;;;;4918713;29;20040;-86
2023/07/06 09:41:46;;;;;;;5.20;1.75;;;23.00;62.00;;;;;;4935331;29;20040;-84
2023/07/06 09:44:20;;;;;;;8.32;2.38;;;23.70;50.30;;;;;;4942119;29;20023;-83
2023/07/06 09:46:46;;;;;;;4.55;1.75;;;24.10;46.40;;;;;;4940713;29;20051;-84
2023/07/06 09:49:17;;;;;;;3.67;1.10;;;25.20;21.40;;;;;;4941650;29;20036;-83
2023/07/06 09:51:50;;;;;;;8.07;1.60;;;25.60;12.30;;;;;;4933014;29;20035;-80
2023/07/06 09:54:23;;;;;;;4.65;1.30;;;24.70;17.80;;;;;;4937656;29;20036;-84
2023/07/06 09:56:49;;;;;;;4.28;1.42;;;23.50;33.70;;;;;;4937659;29;20066;-82
2023/07/06 09:59:16;;;;;;;4.13;1.60;;;22.90;48.40;;;;;;4937640;29;20463;-80
2023/07/06 10:01:51;;;;;;;5.88;1.52;;;22.80;58.90;;;;;;4939076;29;20514;-82
2023/07/06 10:04:52;;;;;;;3.88;1.20;;;23.10;56.30;;;;;;4936409;29;20036;-83
2023/07/06 10:07:23;;;;;;;3.67;1.50;;;23.10;41.10;;;;;;4937347;29;20494;-82
2023/07/06 10:10:20;;;;;;;5.45;1.67;;;22.80;55.20;;;;;;4937346;29;20044;-83
2023/07/06 10:13:00;;;;;;;2.83;1.60;;;23.50;50.10;;;;;;4911288;29;20036;-82
2023/07/06 10:15:39;;;;;;;3.63;1.42;;;23.90;32.80;;;;;;4936062;29;20040;-82
2023/07/06 10:18:17;;;;;;;3.17;1.07;;;23.50;35.50;;;;;;4937475;29;20051;-80
2023/07/06 10:20:50;;;;;;;2.55;1.13;;;23.10;52.00;;;;;;4937010;29;20050;-82
2023/07/06 10:23:32;;;;;;;4.30;1.23;;;22.90;55.80;;;;;;4933462;29;20040;-82
2023/07/06 10:26:17;;;;;;;4.35;1.40;;;23.20;43.60;;;;;;4935168;29;20062;-82
2023/07/06 10:28:51;;;;;;;4.00;1.45;;;23.30;38.00;;;;;;4936309;29;20058;-82
2023/07/06 10:31:21;;;;;;;4.47;1.30;;;23.30;45.10;;;;;;4931056;29;20522;-83
2023/07/06 10:34:02;;;;;;;4.40;1.67;;;23.20;35.30;;;;;;4915928;29;20047;-83
2023/07/06 10:36:32;;;;;;;3.88;1.38;;;23.60;29.10;;;;;;4935279;29;20038;-82
2023/07/06 10:39:03;;;;;;;3.33;1.40;;;23.30;30.70;;;;;;4924351;29;20043;-82
2023/07/06 10:41:31;;;;;;;3.67;1.60;;;23.30;39.40;;;;;;4933916;29;20044;-81
2023/07/06 10:44:19;;;;;;;2.70;1.30;;;23.50;48.40;;;;;;4935519;29;20047;-83
2023/07/06 10:46:57;;;;;;;2.88;1.60;;;23.60;28.60;;;;;;4936070;29;20051;-82
2023/07/06 10:49:23;;;;;;;6.22;2.03;;;23.00;33.60;;;;;;4934759;29;20043;-80
2023/07/06 10:51:52;;;;;;;2.47;0.95;;;23.00;39.50;;;;;;4934446;29;20051;-83
2023/07/06 10:54:26;;;;;;;5.40;2.10;;;23.40;28.40;;;;;;4935662;29;20035;-81
2023/07/06 10:57:02;;;;;;;2.70;1.30;;;24.00;36.90;;;;;;4912251;29;20471;-81
2023/07/06 10:59:44;;;;;;;2.30;1.35;;;24.40;16.90;;;;;;4934864;29;20403;-81
2023/07/06 11:02:36;;;;;;;7.22;1.52;;;24.60;7.20;;;;;;4930538;29;20047;-83
2023/07/06 11:05:10;;;;;;;2.72;1.33;;;24.30;9.20;;;;;;4935824;29;20035;-82
2023/07/06 11:08:05;;;;;;;6.18;1.98;;;23.90;14.50;;;;;;4935744;29;20039;-83
2023/07/06 11:10:43;;;;;;;4.72;1.88;;;23.90;10.70;;;;;;4893850;29;20157;-82
2023/07/06 11:13:10;;;;;;;4.78;2.00;;;23.40;20.50;;;;;;4895351;29;20424;-80
2023/07/06 11:15:39;;;;;;;3.85;1.40;;;23.70;15.20;;;;;;4894868;29;20045;-80
2023/07/06 11:18:34;;;;;;;8.98;1.88;;;23.50;15.00;;;;;;4894697;29;20056;-82
2023/07/06 11:21:06;;;;;;;2.40;1.33;;;24.00;12.30;;;;;;4889235;29;20064;-83
2023/07/06 11:23:48;;;;;;;3.38;1.35;;;24.10;10.90;;;;;;4876760;29;20103;-82
2023/07/06 11:26:32;;;;;;;2.35;1.25;;;24.10;10.10;;;;;;4896482;29;20052;-83
2023/07/06 11:28:59;;;;;;;5.22;1.65;;;23.90;15.30;;;;;;4896537;29;20059;-82
2023/07/06 11:31:49;;;;;;;4.10;1.40;;;23.60;19.20;;;;;;4893919;29;20063;-81
2023/07/06 11:34:52;;;;;;;3.28;1.55;;;23.30;24.10;;;;;;4891551;29;20068;-84
2023/07/06 11:37:34;;;;;;;4.25;1.35;;;23.30;34.60;;;;;;4895684;29;20051;-86
2023/07/06 11:40:32;;;;;;;3.40;1.25;;;23.20;29.50;;;;;;4896159;29;20052;-84
2023/07/06 11:43:24;;;;;;;3.55;1.15;;;23.10;26.00;;;;;;4893085;29;20052;-85
2023/07/06 11:46:16;;;;;;;4.38;1.55;;;23.30;31.00;;;;;;4897704;29;20040;-84
2023/07/06 11:48:54;;;;;;;5.57;1.63;;;23.90;10.60;;;;;;4937894;29;20048;-85
2023/07/06 11:51:22;;;;;;;2.30;1.10;;;24.00;2.10;;;;;;4935849;29;20050;-85
2023/07/06 11:53:56;;;;;;;4.18;1.70;;;24.10;1.00;;;;;;4913518;29;20116;-90
2023/07/06 11:56:35;;;;;;;5.68;1.58;;;24.30;5.40;;;;;;4941506;29;20039;-88
2023/07/06 11:59:04;;;;;;;3.28;1.42;;;24.60;1.00;;;;;;4923948;29;20046;-87
2023/07/06 12:01:57;;;;;;;3.20;1.35;;;24.60;1.00;;;;;;4913702;29;20157;-85
2023/07/06 12:04:26;;;;;;;3.85;1.30;;;24.70;1.00;;;;;;4911437;29;20051;-85
2023/07/06 12:06:54;;;;;;;3.88;1.55;;;25.20;1.00;;;;;;4935136;29;20463;-83
2023/07/06 12:09:25;;;;;;;2.13;1.38;;;25.80;1.00;;;;;;4929979;29;20406;-85
2023/07/06 12:12:03;;;;;;;3.00;1.48;;;25.70;1.00;;;;;;4931764;29;20052;-87
2023/07/06 12:14:32;;;;;;;4.20;1.25;;;25.10;1.00;;;;;;4934986;29;20039;-86
2023/07/06 12:16:59;;;;;;;3.53;1.52;;;25.30;1.00;;;;;;4912347;29;20052;-85
2023/07/06 12:19:25;;;;;;;4.15;1.38;;;26.00;1.00;;;;;;4943504;29;20051;-87
2023/07/06 12:21:54;;;;;;;3.17;1.30;;;26.00;1.00;;;;;;4941725;29;20112;-86
2023/07/06 12:24:22;;;;;;;2.53;1.13;;;26.30;1.00;;;;;;4938622;29;20072;-86
2023/07/06 12:27:03;;;;;;;3.58;1.30;;;26.70;1.00;;;;;;4937911;29;20046;-86
2023/07/06 12:29:32;;;;;;;2.95;1.52;;;26.90;1.00;;;;;;4934904;29;20031;-85
2023/07/06 12:32:10;;;;;;;3.13;1.67;;;27.10;1.00;;;;;;4931347;29;20051;-87
2023/07/06 12:34:40;;;;;;;2.90;1.70;;;27.20;1.00;;;;;;4935537;29;20035;-86
2023/07/06 12:37:19;;;;;;;3.10;1.27;;;27.30;1.00;;;;;;4935680;29;20039;-84
2023/07/06 12:39:47;;;;;;;4.68;1.52;;;26.60;1.00;;;;;;4934523;29;20036;-84
2023/07/06 12:42:17;;;;;;;3.55;1.67;;;25.50;1.00;;;;;;4933536;29;20058;-83
2023/07/06 12:44:45;;;;;;;2.57;1.30;;;25.00;1.00;;;;;;4934233;29;20033;-82
2023/07/06 12:47:28;;;;;;;3.50;1.33;;;24.80;1.00;;;;;;4905018;29;20036;-83
2023/07/06 12:50:00;;;;;;;3.20;1.52;;;24.70;1.00;;;;;;4931978;29;20040;-82
2023/07/06 12:52:28;;;;;;;5.90;1.58;;;24.90;1.00;;;;;;4909935;29;20392;-83
2023/07/06 12:54:56;;;;;;;4.28;1.75;;;24.60;1.00;;;;;;4916072;29;20035;-81
2023/07/06 12:57:30;;;;;;;3.90;1.77;;;24.40;1.00;;;;;;4929049;29;20048;-83
2023/07/06 13:00:10;;;;;;;5.32;2.03;;;24.50;1.00;;;;;;4932163;29;20044;-82
2023/07/06 13:02:37;;;;;;;;;;;24.50;1.00;;;;;;4930762;29;20292;-82
2023/07/06 13:05:14;;;;;;;4.07;1.20;;;24.80;1.00;;;;;;4934925;29;19910;-81
2023/07/06 13:07:42;;;;;;;4.25;1.70;;;25.20;1.00;;;;;;4929499;29;20074;-84